Portada
METAR-TAF:

METAR-TAF

Aeroports :

Aeroport Internacional de Nador

Nador, Marroc

latitud: 34-59-20N, longitud: 003-01-42W, altitud: 175 m

Observació

L'informe es va fer fa 15 minuts, a les 17:00 UTC
Vent 4 kt del Nord, variant entre Nord/Nord-Oest i Est/Nord-Est
Temperatura 24°C
Humitat 57%
Pressió 1017 hPa
Visibilitat 10 km o més
sense núvols per sota de 1500 mi sense presència de cumulonimbus.

METAR: GMMW 181700Z 01004KT 330V070 CAVOK 24/15 Q1017 NOSIG

Hora: 18:15 (17:15 UTC)

Pronòstic

L'informe es va fer fa 6 hores i 15 minuts, a les 11:00 UTC
Pronòstic vàlid del 18 a les 12 UTC al 19 a les 18 UTC
Vent 10 kt del Nord-Est
Visibilitat 10 km o més
sense núvols per sota de 1500 mi sense presència de cumulonimbus.
Temporalment
l' 18 a les 22 UTC al 19 a les 08 UTC
Vent 2 kt amb direcció variable
Visibilitat: 3000 m
boirina

TAF: GMMW 181100Z 1812/1918 04010KT CAVOK TEMPO 1822/1908 VRB02KT 3000 BR

Observacions i pronòstics meteorològics de més de 4000 aeroports (METAR i TAF).

Les estacions disponibles són els punts grocs i vermells al mapa.

Posi el ratolí al punt desitjat per veure el nom de l'estació.

Feu clic per veure les observacions i els pronòstics meteorològics.

Per canviar el mapa: feu clic els botons verds amb una creu de color negre per apropar; al botó verd amb un guió per allunyar la imatge; o en les fletxes verdes per a mapes adjacents.


METAR-TAF: